createdAt,value
2018-11-03T00:01:35.245Z,35.90
2018-11-03T00:04:04.606Z,36.33
2018-11-03T00:06:33.718Z,31.37
2018-11-03T00:09:03.763Z,38.47
2018-11-03T00:11:33.038Z,36.63
2018-11-03T00:14:02.423Z,35.03
2018-11-03T00:16:31.853Z,33.97
2018-11-03T00:19:00.949Z,38.07
2018-11-03T00:21:30.123Z,32.70
2018-11-03T00:23:59.706Z,31.37
2018-11-03T00:26:29.020Z,27.53
2018-11-03T00:28:58.219Z,28.47
2018-11-03T00:31:27.514Z,27.60
2018-11-03T00:33:56.735Z,31.00
2018-11-03T00:36:26.539Z,31.03
2018-11-03T00:38:55.850Z,31.60
2018-11-03T00:41:25.041Z,32.77
2018-11-03T00:43:54.242Z,32.53
2018-11-03T00:46:23.822Z,32.73
2018-11-03T00:48:52.939Z,31.33
2018-11-03T00:51:22.049Z,32.93
2018-11-03T00:53:51.515Z,32.17
2018-11-03T00:56:21.029Z,33.23
2018-11-03T00:58:50.256Z,31.50
2018-11-03T01:01:19.729Z,32.37
2018-11-03T01:03:48.935Z,33.30
2018-11-03T01:06:18.158Z,30.27
2018-11-03T01:08:47.597Z,31.37
2018-11-03T01:11:16.930Z,31.03
2018-11-03T01:13:46.161Z,29.50
2018-11-03T01:16:15.689Z,30.67
2018-11-03T01:18:44.848Z,31.93
2018-11-03T01:21:13.954Z,30.70
2018-11-03T01:23:43.391Z,29.13
2018-11-03T01:26:12.657Z,30.33
2018-11-03T01:28:41.925Z,30.80
2018-11-03T01:31:11.410Z,29.47
2018-11-03T01:33:40.665Z,30.80
2018-11-03T01:36:10.047Z,31.20
2018-11-03T01:38:39.774Z,28.97
2018-11-03T01:41:09.021Z,32.33
2018-11-03T01:43:38.422Z,29.93
2018-11-03T01:46:07.738Z,29.67
2018-11-03T01:48:37.255Z,27.53
2018-11-03T01:51:06.576Z,28.47
2018-11-03T01:53:35.825Z,29.23
2018-11-03T01:56:05.099Z,28.13
2018-11-03T01:58:34.549Z,29.30
2018-11-03T02:01:03.937Z,29.47
2018-11-03T02:03:33.274Z,28.60
2018-11-03T02:06:02.415Z,28.43
2018-11-03T02:08:31.801Z,29.43
2018-11-03T02:11:00.949Z,29.33
2018-11-03T02:13:30.067Z,29.23
2018-11-03T02:15:59.446Z,28.60
2018-11-03T02:18:28.678Z,30.67
2018-11-03T02:20:57.973Z,27.87
2018-11-03T02:23:27.412Z,29.30
2018-11-03T02:25:56.673Z,28.13
2018-11-03T02:28:25.878Z,28.40
2018-11-03T02:30:55.031Z,27.03
2018-11-03T02:33:24.075Z,25.57
2018-11-03T02:35:53.455Z,27.47
2018-11-03T02:38:23.019Z,27.40
2018-11-03T02:40:52.367Z,26.93
2018-11-03T02:43:21.593Z,26.13
2018-11-03T02:45:51.043Z,26.63
2018-11-03T02:48:21.085Z,27.73
2018-11-03T02:50:50.583Z,29.07
2018-11-03T02:53:19.904Z,26.97
2018-11-03T02:55:49.088Z,26.70
2018-11-03T02:58:18.599Z,26.67
2018-11-03T03:00:47.822Z,27.27
2018-11-03T03:03:17.091Z,25.93
2018-11-03T03:05:46.450Z,25.60
2018-11-03T03:08:15.614Z,25.60
2018-11-03T03:10:45.110Z,24.83
2018-11-03T03:13:14.509Z,26.07
2018-11-03T03:15:43.717Z,22.10
2018-11-03T03:18:12.865Z,21.43
2018-11-03T03:20:42.697Z,23.37
2018-11-03T03:23:11.823Z,24.17
2018-11-03T03:25:41.196Z,23.30
2018-11-03T03:28:10.660Z,24.13
2018-11-03T03:30:39.891Z,24.10
2018-11-03T03:33:09.029Z,24.83
2018-11-03T03:35:38.580Z,25.07
2018-11-03T03:38:07.693Z,26.83
2018-11-03T03:40:36.926Z,27.23
2018-11-03T03:43:06.346Z,26.27
2018-11-03T03:45:35.713Z,25.40
2018-11-03T03:48:04.913Z,25.47
2018-11-03T03:50:34.450Z,28.27
2018-11-03T03:53:03.757Z,26.60
2018-11-03T03:55:32.910Z,29.37
2018-11-03T03:58:02.124Z,27.97
2018-11-03T04:00:31.430Z,26.07
2018-11-03T04:03:00.785Z,26.37
2018-11-03T04:05:30.156Z,25.27
2018-11-03T04:07:59.308Z,27.77
2018-11-03T04:10:28.533Z,27.50
2018-11-03T04:12:58.213Z,27.93
2018-11-03T04:15:27.454Z,27.13
2018-11-03T04:17:56.686Z,26.03
2018-11-03T04:20:26.152Z,26.07
2018-11-03T04:22:55.383Z,25.90
2018-11-03T04:25:24.468Z,25.93
2018-11-03T04:27:53.925Z,25.70
2018-11-03T04:30:23.305Z,24.97
2018-11-03T04:32:52.694Z,25.87
2018-11-03T04:35:21.930Z,26.97
2018-11-03T04:37:51.099Z,26.43
2018-11-03T04:40:20.380Z,28.50
2018-11-03T04:42:49.687Z,27.67
2018-11-03T04:45:19.279Z,27.63
2018-11-03T04:47:48.467Z,25.97
2018-11-03T04:50:17.951Z,27.40
2018-11-03T04:52:47.199Z,26.30
2018-11-03T04:55:16.539Z,29.30
2018-11-03T04:57:46.215Z,27.50
2018-11-03T05:00:15.606Z,25.77
2018-11-03T05:02:44.906Z,25.87
2018-11-03T05:05:14.358Z,25.73
2018-11-03T05:07:43.627Z,26.30
2018-11-03T05:10:12.837Z,26.50
2018-11-03T05:12:42.137Z,27.20
2018-11-03T05:15:11.404Z,26.17
2018-11-03T05:17:40.505Z,24.30
2018-11-03T05:20:10.125Z,24.80
2018-11-03T05:22:39.595Z,23.93
2018-11-03T05:25:08.892Z,25.70
2018-11-03T05:27:41.567Z,25.13
2018-11-03T05:30:10.854Z,24.40
2018-11-03T05:32:40.057Z,26.07
2018-11-03T05:35:09.417Z,25.90
2018-11-03T05:37:38.588Z,25.53
2018-11-03T05:40:07.787Z,26.43
2018-11-03T05:42:37.429Z,26.47
2018-11-03T05:45:06.782Z,28.77
2018-11-03T05:47:36.084Z,28.57
2018-11-03T05:50:06.220Z,28.50
2018-11-03T05:52:35.467Z,27.70
2018-11-03T05:55:04.779Z,27.87
2018-11-03T05:57:34.130Z,28.03
2018-11-03T06:00:03.325Z,28.70
2018-11-03T06:02:32.598Z,28.13
2018-11-03T06:05:01.934Z,27.27
2018-11-03T06:07:31.078Z,27.50
2018-11-03T06:10:00.171Z,28.83
2018-11-03T06:12:29.498Z,27.43
2018-11-03T06:14:58.779Z,25.57
2018-11-03T06:17:28.173Z,24.10
2018-11-03T06:19:57.355Z,24.03
2018-11-03T06:22:26.645Z,24.93
2018-11-03T06:24:56.067Z,24.10
2018-11-03T06:27:25.927Z,22.90
2018-11-03T06:29:55.209Z,23.30
2018-11-03T06:32:24.434Z,24.60
2018-11-03T06:34:53.670Z,21.63
2018-11-03T06:37:23.274Z,21.60
2018-11-03T06:39:52.531Z,20.83
2018-11-03T06:42:22.075Z,20.90
2018-11-03T06:44:51.478Z,21.10
2018-11-03T06:47:20.796Z,20.37
2018-11-03T06:49:50.474Z,21.00
2018-11-03T06:52:19.734Z,20.53
2018-11-03T06:54:49.177Z,19.07
2018-11-03T06:57:18.582Z,18.37
2018-11-03T06:59:47.863Z,17.73
2018-11-03T07:02:17.773Z,18.17
2018-11-03T07:04:47.109Z,18.00
2018-11-03T07:07:16.382Z,19.90
2018-11-03T07:09:45.998Z,18.73
2018-11-03T07:12:15.502Z,18.40
2018-11-03T07:14:44.888Z,19.30
2018-11-03T07:17:14.049Z,19.87
2018-11-03T07:19:43.313Z,21.27
2018-11-03T07:22:12.746Z,18.70
2018-11-03T07:24:42.319Z,18.53
2018-11-03T07:27:11.610Z,19.90
2018-11-03T07:29:41.080Z,20.23
2018-11-03T07:32:10.602Z,19.17
2018-11-03T07:34:39.885Z,18.80
2018-11-03T07:37:09.190Z,20.17
2018-11-03T07:39:38.362Z,18.57
2018-11-03T07:42:07.913Z,19.80
2018-11-03T07:44:37.516Z,19.77
2018-11-03T07:47:06.896Z,20.70
2018-11-03T07:49:36.255Z,19.97
2018-11-03T07:52:05.521Z,20.63
2018-11-03T07:54:35.307Z,20.77
2018-11-03T07:57:04.850Z,19.60
2018-11-03T07:59:34.127Z,21.93
2018-11-03T08:02:04.680Z,23.67
2018-11-03T08:04:34.077Z,20.73
2018-11-03T08:07:03.294Z,20.97
2018-11-03T08:09:32.885Z,22.00
2018-11-03T08:12:02.285Z,20.63
2018-11-03T08:14:31.534Z,21.83
2018-11-03T08:17:01.579Z,21.27
2018-11-03T08:19:30.966Z,23.90
2018-11-03T08:22:00.130Z,22.73
2018-11-03T08:24:29.434Z,23.07
2018-11-03T08:26:58.553Z,23.00
2018-11-03T08:29:27.832Z,24.40
2018-11-03T08:31:57.133Z,23.20
2018-11-03T08:34:26.561Z,25.13
2018-11-03T08:36:55.863Z,22.20
2018-11-03T08:39:25.230Z,23.97
2018-11-03T08:41:54.537Z,25.67
2018-11-03T08:44:23.509Z,25.33
2018-11-03T08:46:53.067Z,24.83
2018-11-03T08:49:22.445Z,23.77
2018-11-03T08:51:51.779Z,23.80
2018-11-03T08:54:21.078Z,23.00
2018-11-03T08:56:50.358Z,24.67
2018-11-03T08:59:19.718Z,24.17
2018-11-03T09:01:49.113Z,20.00
2018-11-03T09:04:18.351Z,22.20
2018-11-03T09:06:47.463Z,21.53
2018-11-03T09:09:16.950Z,23.03
2018-11-03T09:11:46.122Z,20.07
2018-11-03T09:14:15.278Z,20.60
2018-11-03T09:16:44.315Z,21.57
2018-11-03T09:19:13.737Z,24.10
2018-11-03T09:21:43.041Z,24.47
2018-11-03T09:24:12.396Z,24.27
2018-11-03T09:26:41.315Z,26.53
2018-11-03T09:29:10.541Z,23.57
2018-11-03T09:31:39.999Z,23.20
2018-11-03T09:34:09.514Z,23.17
2018-11-03T09:36:38.710Z,22.73
2018-11-03T09:39:10.041Z,21.10
2018-11-03T09:41:39.643Z,19.93
2018-11-03T09:44:09.011Z,19.73
2018-11-03T09:46:38.583Z,18.33
2018-11-03T09:49:08.081Z,19.23
2018-11-03T09:51:37.285Z,19.07
2018-11-03T09:54:06.718Z,20.30
2018-11-03T09:56:35.906Z,19.43
2018-11-03T09:59:05.510Z,23.30
2018-11-03T10:01:35.038Z,21.97
2018-11-03T10:04:04.438Z,19.03
2018-11-03T10:06:33.748Z,18.93
2018-11-03T10:09:03.347Z,17.37
2018-11-03T10:11:32.591Z,17.17
2018-11-03T10:14:01.922Z,17.27
2018-11-03T10:16:31.173Z,19.30
2018-11-03T10:19:00.333Z,17.20
2018-11-03T10:21:29.551Z,16.87
2018-11-03T10:23:59.060Z,17.10
2018-11-03T10:26:28.341Z,17.37
2018-11-03T10:28:57.717Z,17.17
2018-11-03T10:31:27.179Z,23.20
2018-11-03T10:33:56.322Z,17.37
2018-11-03T10:36:25.690Z,17.93
2018-11-03T10:38:54.999Z,18.13
2018-11-03T10:41:26.726Z,18.10
2018-11-03T10:43:56.702Z,17.47
2018-11-03T10:46:25.863Z,17.33
2018-11-03T10:48:55.927Z,16.50
2018-11-03T10:51:25.295Z,17.10
2018-11-03T10:53:54.716Z,16.97
2018-11-03T10:56:24.126Z,15.27
2018-11-03T10:58:54.778Z,18.87
2018-11-03T11:01:29.547Z,17.43
2018-11-03T11:04:04.277Z,14.97
2018-11-03T11:06:38.466Z,17.23
2018-11-03T11:09:13.291Z,13.90
2018-11-03T11:11:47.764Z,14.33
2018-11-03T11:14:17.754Z,12.67
2018-11-03T11:16:47.137Z,11.97
2018-11-03T11:19:16.452Z,12.27
2018-11-03T11:21:46.981Z,13.00
2018-11-03T11:24:16.526Z,13.83
2018-11-03T11:26:45.779Z,10.47
2018-11-03T11:29:15.152Z,12.00
2018-11-03T11:31:44.502Z,10.67
2018-11-03T11:34:13.956Z,11.53
2018-11-03T11:36:43.400Z,11.00
2018-11-03T11:39:12.722Z,10.30
2018-11-03T11:41:42.109Z,10.40
2018-11-03T11:44:11.595Z,11.10
2018-11-03T11:46:40.893Z,9.93
2018-11-03T11:49:10.119Z,10.67
2018-11-03T11:51:39.403Z,10.03
2018-11-03T11:54:09.314Z,10.87
2018-11-03T11:56:38.636Z,9.97
2018-11-03T11:59:07.951Z,14.23
2018-11-03T12:01:37.275Z,14.70
2018-11-03T12:04:06.830Z,11.40
2018-11-03T12:06:36.040Z,10.60
2018-11-03T12:09:06.478Z,9.90
2018-11-03T12:11:35.742Z,9.30
2018-11-03T12:14:05.065Z,10.10
2018-11-03T12:16:34.361Z,11.07
2018-11-03T12:19:03.594Z,10.07
2018-11-03T12:21:32.826Z,9.73
2018-11-03T12:24:01.941Z,9.20
2018-11-03T12:26:31.449Z,9.03
2018-11-03T12:29:00.727Z,8.77
2018-11-03T12:31:30.014Z,7.43
2018-11-03T12:33:59.626Z,8.13
2018-11-03T12:36:28.995Z,8.13
2018-11-03T12:38:58.226Z,8.97
2018-11-03T12:41:27.753Z,11.43
2018-11-03T12:43:57.099Z,9.70
2018-11-03T12:46:26.179Z,8.60
2018-11-03T12:48:55.592Z,9.30
2018-11-03T12:51:25.105Z,9.20
2018-11-03T12:53:54.425Z,9.97
2018-11-03T12:56:23.993Z,10.00
2018-11-03T12:58:53.098Z,9.40
2018-11-03T13:01:22.207Z,9.20
2018-11-03T13:03:51.670Z,11.23
2018-11-03T13:06:20.933Z,9.40
2018-11-03T13:08:50.118Z,7.93
2018-11-03T13:11:19.353Z,8.23
2018-11-03T13:13:48.610Z,9.87
2018-11-03T13:16:17.894Z,11.23
2018-11-03T13:18:47.198Z,8.73
2018-11-03T13:21:16.421Z,6.27
2018-11-03T13:23:47.281Z,7.07
2018-11-03T13:26:16.371Z,7.93
2018-11-03T13:28:49.110Z,7.17
2018-11-03T13:31:18.479Z,9.60
2018-11-03T13:33:47.671Z,6.80
2018-11-03T13:36:17.216Z,6.80
2018-11-03T13:38:46.366Z,8.70
2018-11-03T13:41:15.496Z,7.30
2018-11-03T13:43:45.157Z,6.57
2018-11-03T13:46:14.534Z,7.90
2018-11-03T13:48:43.759Z,13.80
2018-11-03T13:51:13.123Z,8.33
2018-11-03T13:53:42.315Z,6.47
2018-11-03T13:56:11.601Z,8.03
2018-11-03T13:58:40.968Z,10.03
2018-11-03T14:01:10.070Z,7.33
2018-11-03T14:03:39.255Z,18.47
2018-11-03T14:06:08.793Z,12.23
2018-11-03T14:08:38.066Z,53.00
2018-11-03T14:11:07.186Z,38.60
2018-11-03T14:13:36.708Z,20.70
2018-11-03T14:16:07.795Z,17.13
2018-11-03T14:18:37.278Z,12.47
2018-11-03T14:21:06.526Z,10.83
2018-11-03T14:23:35.814Z,13.53
2018-11-03T14:26:05.542Z,10.07
2018-11-03T14:28:34.642Z,9.80
2018-11-03T14:31:03.922Z,10.97
2018-11-03T14:33:33.291Z,8.23
2018-11-03T14:36:02.677Z,8.03
2018-11-03T14:38:32.219Z,9.27
2018-11-03T14:41:01.603Z,10.43
2018-11-03T14:43:30.842Z,16.70
2018-11-03T14:46:00.185Z,15.23
2018-11-03T14:48:29.844Z,14.30
2018-11-03T14:50:59.250Z,13.10
2018-11-03T14:53:28.588Z,11.90
2018-11-03T14:55:58.083Z,17.03
2018-11-03T14:58:27.459Z,25.10
2018-11-03T15:00:56.847Z,18.87
2018-11-03T15:03:26.206Z,19.13
2018-11-03T15:05:55.378Z,20.67
2018-11-03T15:08:24.597Z,17.97
2018-11-03T15:10:54.284Z,30.47
2018-11-03T15:13:23.687Z,25.67
2018-11-03T15:15:53.066Z,22.70
2018-11-03T15:18:22.299Z,20.07
2018-11-03T15:20:51.470Z,20.17
2018-11-03T15:23:20.578Z,23.13
2018-11-03T15:25:50.082Z,34.97
2018-11-03T15:28:19.166Z,30.93
2018-11-03T15:30:48.442Z,34.93
2018-11-03T15:33:17.982Z,36.80
2018-11-03T15:35:47.290Z,33.20
2018-11-03T15:38:16.455Z,33.43
2018-11-03T15:40:45.702Z,33.03
2018-11-03T15:43:15.774Z,55.47
2018-11-03T15:45:44.898Z,67.17
2018-11-03T15:48:14.351Z,72.47
2018-11-03T15:50:48.693Z,85.47
2018-11-03T15:53:18.154Z,85.07
2018-11-03T15:55:47.391Z,94.87
2018-11-03T15:58:16.700Z,89.30
2018-11-03T16:00:46.093Z,90.00
2018-11-03T16:03:15.696Z,88.33
2018-11-03T16:05:44.801Z,73.17
2018-11-03T16:08:14.231Z,79.33
2018-11-03T16:10:43.512Z,83.00
2018-11-03T16:13:12.645Z,81.47
2018-11-03T16:15:41.995Z,87.17
2018-11-03T16:18:11.346Z,90.13
2018-11-03T16:20:40.690Z,82.33
2018-11-03T16:23:10.185Z,79.20
2018-11-03T16:25:39.472Z,83.47
2018-11-03T16:28:08.625Z,81.27
2018-11-03T16:30:38.442Z,85.37
2018-11-03T16:33:07.927Z,109.17
2018-11-03T16:39:33.892Z,127.57
2018-11-03T16:42:02.847Z,106.27
2018-11-03T16:44:36.871Z,94.03
2018-11-03T16:47:06.696Z,82.07
2018-11-03T16:49:38.240Z,66.33
2018-11-03T16:52:18.185Z,60.87
2018-11-03T16:54:47.848Z,55.50
2018-11-03T16:57:19.563Z,52.53
2018-11-03T16:59:49.070Z,47.30
2018-11-03T17:02:18.762Z,42.83
2018-11-03T17:04:50.489Z,39.77
2018-11-03T17:07:19.894Z,40.37
2018-11-03T17:09:49.018Z,36.97
2018-11-03T17:12:18.932Z,39.10
2018-11-03T17:14:54.001Z,34.63
2018-11-03T17:17:23.378Z,42.77
2018-11-03T17:19:53.286Z,60.93
2018-11-03T17:22:22.538Z,93.80
2018-11-03T17:24:53.262Z,98.67
2018-11-03T17:27:22.940Z,85.50
2018-11-03T17:29:52.155Z,72.10
2018-11-03T17:32:21.437Z,59.23
2018-11-03T17:34:50.990Z,46.17
2018-11-03T17:37:21.197Z,39.50
2018-11-03T17:39:50.471Z,34.00
2018-11-03T17:42:19.793Z,32.77
2018-11-03T17:44:49.030Z,30.23
2018-11-03T17:47:18.323Z,31.70
2018-11-03T17:49:47.874Z,33.23
2018-11-03T17:52:17.470Z,30.87
2018-11-03T17:54:46.672Z,31.63
2018-11-03T17:57:16.155Z,31.07
2018-11-03T17:59:45.476Z,30.07
2018-11-03T18:02:14.670Z,30.47
2018-11-03T18:04:44.033Z,30.37
2018-11-03T18:07:13.304Z,30.27
2018-11-03T18:09:42.493Z,29.80
2018-11-03T18:12:11.921Z,29.10
2018-11-03T18:14:41.261Z,27.53
2018-11-03T18:17:10.463Z,29.87
2018-11-03T18:19:39.806Z,29.40
2018-11-03T18:22:09.172Z,28.07
2018-11-03T18:24:38.363Z,27.87
2018-11-03T18:27:08.454Z,29.03
2018-11-03T18:29:39.319Z,32.40
2018-11-03T18:32:09.779Z,29.87
2018-11-03T18:34:39.195Z,30.97
2018-11-03T18:37:08.680Z,28.30
2018-11-03T18:39:38.240Z,28.87
2018-11-03T18:42:07.349Z,29.80
2018-11-03T18:44:36.680Z,32.63
2018-11-03T18:47:06.534Z,32.00
2018-11-03T18:49:35.962Z,32.37
2018-11-03T18:52:05.279Z,33.63
2018-11-03T18:54:35.258Z,36.17
2018-11-03T18:57:04.602Z,37.93
2018-11-03T18:59:35.634Z,41.63
2018-11-03T19:02:05.487Z,40.30
2018-11-03T19:04:35.212Z,40.90
2018-11-03T19:07:05.121Z,40.80
2018-11-03T19:09:34.331Z,44.20
2018-11-03T19:12:03.598Z,52.80
2018-11-03T19:14:49.568Z,57.50
2018-11-03T19:17:19.084Z,61.23
2018-11-03T19:19:54.742Z,45.17
2018-11-03T19:22:24.380Z,45.20
2018-11-03T19:24:54.016Z,45.07
2018-11-03T19:27:23.183Z,39.27
2018-11-03T19:29:52.530Z,37.87
2018-11-03T19:32:21.995Z,39.67
2018-11-03T19:34:51.477Z,34.43
2018-11-03T19:37:20.975Z,31.10
2018-11-03T19:39:50.204Z,27.47
2018-11-03T19:42:19.294Z,23.67
2018-11-03T19:44:48.730Z,26.03
2018-11-03T19:47:17.877Z,24.70
2018-11-03T19:49:47.162Z,24.37
2018-11-03T19:52:16.519Z,22.90
2018-11-03T19:54:45.916Z,21.80
2018-11-03T19:57:15.545Z,18.80
2018-11-03T19:59:45.953Z,18.00
2018-11-03T20:02:15.222Z,16.17
2018-11-03T20:04:44.440Z,15.97
2018-11-03T20:07:13.928Z,15.47
2018-11-03T20:09:43.141Z,17.07
2018-11-03T20:12:12.366Z,16.27
2018-11-03T20:14:41.778Z,15.63
2018-11-03T20:17:11.090Z,15.60
2018-11-03T20:19:40.286Z,14.93
2018-11-03T20:22:09.567Z,14.97
2018-11-03T20:24:39.094Z,14.57
2018-11-03T20:27:08.412Z,14.83
2018-11-03T20:29:38.034Z,14.90
2018-11-03T20:32:07.328Z,16.10
2018-11-03T20:34:36.397Z,16.90
2018-11-03T20:37:05.799Z,22.03
2018-11-03T20:39:35.097Z,14.37
2018-11-03T20:42:04.412Z,14.13
2018-11-03T20:44:34.021Z,20.57
2018-11-03T20:47:03.215Z,16.97
2018-11-03T20:49:32.403Z,18.07
2018-11-03T20:52:01.802Z,17.50
2018-11-03T20:54:31.189Z,18.53
2018-11-03T20:57:01.360Z,20.67
2018-11-03T20:59:30.477Z,19.30
2018-11-03T21:01:59.729Z,20.27
2018-11-03T21:04:29.454Z,23.17
2018-11-03T21:06:58.713Z,23.10
2018-11-03T21:09:30.268Z,23.47
2018-11-03T21:12:01.830Z,24.63
2018-11-03T21:14:31.161Z,26.77
2018-11-03T21:17:00.374Z,21.97
2018-11-03T21:19:29.470Z,22.67
2018-11-03T21:21:58.883Z,21.87
2018-11-03T21:24:28.140Z,21.37
2018-11-03T21:26:57.564Z,23.63
2018-11-03T21:29:27.049Z,22.27
2018-11-03T21:31:56.362Z,22.70
2018-11-03T21:34:25.677Z,22.40
2018-11-03T21:36:54.919Z,22.93
2018-11-03T21:39:24.046Z,21.77
2018-11-03T21:41:53.148Z,22.53
2018-11-03T21:44:22.419Z,23.27
2018-11-03T21:46:51.919Z,24.57
2018-11-03T21:49:21.257Z,23.90
2018-11-03T21:51:50.511Z,26.23
2018-11-03T21:54:20.394Z,24.10
2018-11-03T21:56:49.675Z,25.60
2018-11-03T21:59:19.194Z,25.90
2018-11-03T22:01:48.494Z,25.77
2018-11-03T22:04:17.792Z,27.20
2018-11-03T22:06:47.914Z,29.90
2018-11-03T22:09:17.095Z,30.63
2018-11-03T22:11:46.296Z,33.57
2018-11-03T22:14:15.587Z,36.60
2018-11-03T22:16:44.890Z,37.17
2018-11-03T22:19:14.288Z,36.77
2018-11-03T22:21:43.742Z,36.20
2018-11-03T22:24:13.083Z,34.10
2018-11-03T22:26:42.213Z,33.80
2018-11-03T22:29:11.569Z,32.93
2018-11-03T22:31:40.901Z,32.93
2018-11-03T22:34:10.189Z,34.33
2018-11-03T22:36:39.736Z,35.57
2018-11-03T22:39:09.395Z,36.80
2018-11-03T22:41:38.729Z,36.57
2018-11-03T22:44:07.959Z,35.03
2018-11-03T22:46:37.294Z,36.27
2018-11-03T22:49:06.525Z,35.93
2018-11-03T22:51:35.798Z,36.10
2018-11-03T22:54:05.431Z,35.03
2018-11-03T22:56:35.107Z,35.13
2018-11-03T22:59:04.334Z,34.63
2018-11-03T23:01:33.656Z,35.17
2018-11-03T23:04:02.979Z,35.40
2018-11-03T23:06:32.301Z,34.93
2018-11-03T23:09:01.505Z,34.20
2018-11-03T23:11:31.049Z,33.50
2018-11-03T23:14:00.346Z,33.33
2018-11-03T23:16:29.638Z,33.37
2018-11-03T23:18:58.946Z,32.63
2018-11-03T23:21:28.239Z,32.80
2018-11-03T23:23:57.420Z,30.63
2018-11-03T23:26:26.911Z,31.73
2018-11-03T23:28:56.135Z,32.03
2018-11-03T23:31:25.375Z,29.93
2018-11-03T23:33:55.070Z,28.90
2018-11-03T23:36:24.343Z,28.57
2018-11-03T23:38:53.442Z,28.57
2018-11-03T23:41:22.873Z,29.70
2018-11-03T23:43:52.054Z,27.73
2018-11-03T23:46:21.367Z,29.57
2018-11-03T23:48:51.106Z,29.50
2018-11-03T23:51:20.473Z,28.40
2018-11-03T23:53:49.774Z,29.20
2018-11-03T23:56:19.015Z,28.00
2018-11-03T23:58:48.249Z,29.20
